sensor_id;sensor_type;location;lat;lon;timestamp;temperature;humidity
12833;DHT22;6483;51.310;4.462;2022-10-16T00:01:24;13.40;99.90
12833;DHT22;6483;51.310;4.462;2022-10-16T00:03:49;13.50;99.90
12833;DHT22;6483;51.310;4.462;2022-10-16T00:06:23;13.70;99.90
12833;DHT22;6483;51.310;4.462;2022-10-16T00:08:52;13.80;99.90
12833;DHT22;6483;51.310;4.462;2022-10-16T00:11:38;13.80;99.90
12833;DHT22;6483;51.310;4.462;2022-10-16T00:14:10;14.00;99.90
12833;DHT22;6483;51.310;4.462;2022-10-16T00:16:42;14.00;99.90
12833;DHT22;6483;51.310;4.462;2022-10-16T00:19:10;14.10;99.90
12833;DHT22;6483;51.310;4.462;2022-10-16T00:21:36;14.10;99.90
12833;DHT22;6483;51.310;4.462;2022-10-16T00:24:07;14.20;99.90
12833;DHT22;6483;51.310;4.462;2022-10-16T00:26:35;14.10;99.90
12833;DHT22;6483;51.310;4.462;2022-10-16T00:29:01;14.10;99.90
12833;DHT22;6483;51.310;4.462;2022-10-16T00:31:27;14.00;99.90
12833;DHT22;6483;51.310;4.462;2022-10-16T00:33:53;13.90;99.90
12833;DHT22;6483;51.310;4.462;2022-10-16T00:36:22;13.90;99.90
12833;DHT22;6483;51.310;4.462;2022-10-16T00:38:55;13.90;99.90
12833;DHT22;6483;51.310;4.462;2022-10-16T00:41:25;13.90;99.90
12833;DHT22;6483;51.310;4.462;2022-10-16T00:44:00;13.80;99.90
12833;DHT22;6483;51.310;4.462;2022-10-16T00:46:39;13.90;99.90
12833;DHT22;6483;51.310;4.462;2022-10-16T00:49:11;13.90;99.90
12833;DHT22;6483;51.310;4.462;2022-10-16T00:51:45;13.80;99.90
12833;DHT22;6483;51.310;4.462;2022-10-16T00:54:16;13.70;99.90
12833;DHT22;6483;51.310;4.462;2022-10-16T00:56:43;13.70;99.90
12833;DHT22;6483;51.310;4.462;2022-10-16T01:00:03;13.70;99.90
12833;DHT22;6483;51.310;4.462;2022-10-16T01:02:22;13.90;99.90
12833;DHT22;6483;51.310;4.462;2022-10-16T01:04:52;13.90;99.90
12833;DHT22;6483;51.310;4.462;2022-10-16T01:07:46;13.90;99.90
12833;DHT22;6483;51.310;4.462;2022-10-16T01:18:54;13.60;99.90
12833;DHT22;6483;51.310;4.462;2022-10-16T01:21:26;13.60;99.90
12833;DHT22;6483;51.310;4.462;2022-10-16T01:29:31;13.50;99.90
12833;DHT22;6483;51.310;4.462;2022-10-16T01:35:21;13.40;99.90
12833;DHT22;6483;51.310;4.462;2022-10-16T01:40:26;13.40;99.90
12833;DHT22;6483;51.310;4.462;2022-10-16T01:43:00;13.40;99.90
12833;DHT22;6483;51.310;4.462;2022-10-16T01:45:29;13.30;99.90
12833;DHT22;6483;51.310;4.462;2022-10-16T01:47:57;13.00;99.90
12833;DHT22;6483;51.310;4.462;2022-10-16T01:50:33;13.20;99.90
12833;DHT22;6483;51.310;4.462;2022-10-16T01:53:02;13.20;99.90
12833;DHT22;6483;51.310;4.462;2022-10-16T01:55:32;13.10;99.90
12833;DHT22;6483;51.310;4.462;2022-10-16T01:58:01;13.20;99.90
12833;DHT22;6483;51.310;4.462;2022-10-16T02:00:29;13.10;99.90
12833;DHT22;6483;51.310;4.462;2022-10-16T02:02:55;13.10;99.90
12833;DHT22;6483;51.310;4.462;2022-10-16T02:05:41;13.10;99.90
12833;DHT22;6483;51.310;4.462;2022-10-16T02:08:11;13.00;99.90
12833;DHT22;6483;51.310;4.462;2022-10-16T02:10:40;13.00;99.90
12833;DHT22;6483;51.310;4.462;2022-10-16T02:13:12;13.00;99.90
12833;DHT22;6483;51.310;4.462;2022-10-16T02:15:42;14.50;99.90
12833;DHT22;6483;51.310;4.462;2022-10-16T02:18:09;13.00;99.90
12833;DHT22;6483;51.310;4.462;2022-10-16T02:20:51;12.90;99.90
12833;DHT22;6483;51.310;4.462;2022-10-16T02:23:35;12.80;99.90
12833;DHT22;6483;51.310;4.462;2022-10-16T02:26:08;12.80;99.90
12833;DHT22;6483;51.310;4.462;2022-10-16T02:28:42;12.80;99.90
12833;DHT22;6483;51.310;4.462;2022-10-16T02:31:21;12.90;99.90
12833;DHT22;6483;51.310;4.462;2022-10-16T02:33:57;12.90;99.90
12833;DHT22;6483;51.310;4.462;2022-10-16T02:36:25;12.80;99.90
12833;DHT22;6483;51.310;4.462;2022-10-16T02:38:51;12.80;99.90
12833;DHT22;6483;51.310;4.462;2022-10-16T02:41:18;12.70;99.90
12833;DHT22;6483;51.310;4.462;2022-10-16T02:43:47;12.70;99.90
12833;DHT22;6483;51.310;4.462;2022-10-16T02:46:12;12.80;99.90
12833;DHT22;6483;51.310;4.462;2022-10-16T02:48:38;12.80;99.90
12833;DHT22;6483;51.310;4.462;2022-10-16T02:51:06;12.80;99.90
12833;DHT22;6483;51.310;4.462;2022-10-16T02:53:31;12.70;99.90
12833;DHT22;6483;51.310;4.462;2022-10-16T02:56:00;12.60;99.90
12833;DHT22;6483;51.310;4.462;2022-10-16T02:58:25;12.60;99.90
12833;DHT22;6483;51.310;4.462;2022-10-16T03:00:51;12.80;99.90
12833;DHT22;6483;51.310;4.462;2022-10-16T03:03:17;12.80;99.90
12833;DHT22;6483;51.310;4.462;2022-10-16T03:05:43;12.80;99.90
12833;DHT22;6483;51.310;4.462;2022-10-16T03:08:14;12.70;99.90
12833;DHT22;6483;51.310;4.462;2022-10-16T03:10:40;12.80;99.90
12833;DHT22;6483;51.310;4.462;2022-10-16T03:13:08;12.80;99.90
12833;DHT22;6483;51.310;4.462;2022-10-16T03:15:36;12.90;99.90
12833;DHT22;6483;51.310;4.462;2022-10-16T03:18:02;13.00;99.90
12833;DHT22;6483;51.310;4.462;2022-10-16T03:20:28;13.00;99.90
12833;DHT22;6483;51.310;4.462;2022-10-16T03:22:57;12.90;99.90
12833;DHT22;6483;51.310;4.462;2022-10-16T03:25:23;13.00;99.90
12833;DHT22;6483;51.310;4.462;2022-10-16T03:27:49;13.00;99.90
12833;DHT22;6483;51.310;4.462;2022-10-16T03:30:17;13.00;99.90
12833;DHT22;6483;51.310;4.462;2022-10-16T03:32:44;13.00;99.90
12833;DHT22;6483;51.310;4.462;2022-10-16T03:35:12;13.00;99.90
12833;DHT22;6483;51.310;4.462;2022-10-16T03:37:39;13.00;99.90
12833;DHT22;6483;51.310;4.462;2022-10-16T03:40:05;13.00;99.90
12833;DHT22;6483;51.310;4.462;2022-10-16T03:42:31;12.90;99.90
12833;DHT22;6483;51.310;4.462;2022-10-16T03:44:59;12.80;99.90
12833;DHT22;6483;51.310;4.462;2022-10-16T03:47:26;12.80;99.90
12833;DHT22;6483;51.310;4.462;2022-10-16T03:49:51;12.90;99.90
12833;DHT22;6483;51.310;4.462;2022-10-16T03:52:17;12.90;99.90
12833;DHT22;6483;51.310;4.462;2022-10-16T03:54:43;12.90;99.90
12833;DHT22;6483;51.310;4.462;2022-10-16T03:57:09;12.90;99.90
12833;DHT22;6483;51.310;4.462;2022-10-16T03:59:34;12.90;99.90
12833;DHT22;6483;51.310;4.462;2022-10-16T04:02:06;13.00;99.90
12833;DHT22;6483;51.310;4.462;2022-10-16T04:04:34;12.90;99.90
12833;DHT22;6483;51.310;4.462;2022-10-16T04:07:00;12.90;99.90
12833;DHT22;6483;51.310;4.462;2022-10-16T04:09:26;13.00;99.90
12833;DHT22;6483;51.310;4.462;2022-10-16T04:11:55;13.00;99.90
12833;DHT22;6483;51.310;4.462;2022-10-16T04:14:21;12.90;99.90
12833;DHT22;6483;51.310;4.462;2022-10-16T04:16:47;12.90;99.90
12833;DHT22;6483;51.310;4.462;2022-10-16T04:19:16;12.90;99.90
12833;DHT22;6483;51.310;4.462;2022-10-16T04:21:42;12.90;99.90
12833;DHT22;6483;51.310;4.462;2022-10-16T04:24:07;12.90;99.90
12833;DHT22;6483;51.310;4.462;2022-10-16T04:26:36;12.90;99.90
12833;DHT22;6483;51.310;4.462;2022-10-16T04:29:02;12.90;99.90
12833;DHT22;6483;51.310;4.462;2022-10-16T04:31:28;13.00;99.90
12833;DHT22;6483;51.310;4.462;2022-10-16T04:33:53;13.00;99.90
12833;DHT22;6483;51.310;4.462;2022-10-16T04:36:19;12.90;99.90
12833;DHT22;6483;51.310;4.462;2022-10-16T04:38:44;13.00;99.90
12833;DHT22;6483;51.310;4.462;2022-10-16T04:41:10;12.90;99.90
12833;DHT22;6483;51.310;4.462;2022-10-16T04:43:36;12.90;99.90
12833;DHT22;6483;51.310;4.462;2022-10-16T04:46:02;12.90;99.90
12833;DHT22;6483;51.310;4.462;2022-10-16T04:48:35;12.80;99.90
12833;DHT22;6483;51.310;4.462;2022-10-16T04:51:07;12.80;99.90
12833;DHT22;6483;51.310;4.462;2022-10-16T04:53:32;12.80;99.90
12833;DHT22;6483;51.310;4.462;2022-10-16T04:55:58;12.80;99.90
12833;DHT22;6483;51.310;4.462;2022-10-16T04:58:27;12.90;99.90
12833;DHT22;6483;51.310;4.462;2022-10-16T05:00:53;12.80;99.90
12833;DHT22;6483;51.310;4.462;2022-10-16T05:03:21;12.80;99.90
12833;DHT22;6483;51.310;4.462;2022-10-16T05:05:49;12.70;99.90
12833;DHT22;6483;51.310;4.462;2022-10-16T05:08:16;12.80;99.90
12833;DHT22;6483;51.310;4.462;2022-10-16T05:10:42;12.80;99.90
12833;DHT22;6483;51.310;4.462;2022-10-16T05:13:09;12.90;99.90
12833;DHT22;6483;51.310;4.462;2022-10-16T05:15:35;13.00;99.90
12833;DHT22;6483;51.310;4.462;2022-10-16T05:18:00;13.00;99.90
12833;DHT22;6483;51.310;4.462;2022-10-16T05:20:26;13.00;99.90
12833;DHT22;6483;51.310;4.462;2022-10-16T05:22:55;13.00;99.90
12833;DHT22;6483;51.310;4.462;2022-10-16T05:25:20;13.00;99.90
12833;DHT22;6483;51.310;4.462;2022-10-16T05:27:49;13.10;99.90
12833;DHT22;6483;51.310;4.462;2022-10-16T05:30:16;12.90;99.90
12833;DHT22;6483;51.310;4.462;2022-10-16T05:32:46;13.00;99.90
12833;DHT22;6483;51.310;4.462;2022-10-16T05:35:16;13.00;99.90
12833;DHT22;6483;51.310;4.462;2022-10-16T05:37:42;12.90;99.90
12833;DHT22;6483;51.310;4.462;2022-10-16T05:40:11;12.80;99.90
12833;DHT22;6483;51.310;4.462;2022-10-16T05:42:39;12.90;99.90
12833;DHT22;6483;51.310;4.462;2022-10-16T05:45:06;12.80;99.90
12833;DHT22;6483;51.310;4.462;2022-10-16T05:47:34;12.70;99.90
12833;DHT22;6483;51.310;4.462;2022-10-16T05:50:00;12.70;99.90
12833;DHT22;6483;51.310;4.462;2022-10-16T05:52:27;12.70;99.90
12833;DHT22;6483;51.310;4.462;2022-10-16T05:54:52;12.80;99.90
12833;DHT22;6483;51.310;4.462;2022-10-16T05:57:18;14.20;99.90
12833;DHT22;6483;51.310;4.462;2022-10-16T05:59:43;12.80;99.90
12833;DHT22;6483;51.310;4.462;2022-10-16T06:02:13;12.90;99.90
12833;DHT22;6483;51.310;4.462;2022-10-16T06:04:39;13.00;99.90
12833;DHT22;6483;51.310;4.462;2022-10-16T06:07:04;13.00;99.90
12833;DHT22;6483;51.310;4.462;2022-10-16T06:09:30;13.10;99.90
12833;DHT22;6483;51.310;4.462;2022-10-16T06:11:58;13.10;99.90
12833;DHT22;6483;51.310;4.462;2022-10-16T06:14:24;13.20;99.90
12833;DHT22;6483;51.310;4.462;2022-10-16T06:16:53;13.20;99.90
12833;DHT22;6483;51.310;4.462;2022-10-16T06:19:18;13.30;99.90
12833;DHT22;6483;51.310;4.462;2022-10-16T06:21:44;13.30;99.90
12833;DHT22;6483;51.310;4.462;2022-10-16T06:24:13;13.30;99.90
12833;DHT22;6483;51.310;4.462;2022-10-16T06:26:41;13.30;99.90
12833;DHT22;6483;51.310;4.462;2022-10-16T06:29:08;13.30;99.90
12833;DHT22;6483;51.310;4.462;2022-10-16T06:31:33;13.30;99.90
12833;DHT22;6483;51.310;4.462;2022-10-16T06:33:59;13.30;99.90
12833;DHT22;6483;51.310;4.462;2022-10-16T06:36:25;13.30;99.90
12833;DHT22;6483;51.310;4.462;2022-10-16T06:38:52;13.20;99.90
12833;DHT22;6483;51.310;4.462;2022-10-16T06:41:20;13.20;99.90
12833;DHT22;6483;51.310;4.462;2022-10-16T06:43:50;13.20;99.90
12833;DHT22;6483;51.310;4.462;2022-10-16T06:46:18;13.20;99.90
12833;DHT22;6483;51.310;4.462;2022-10-16T06:48:45;13.20;99.90
12833;DHT22;6483;51.310;4.462;2022-10-16T06:51:19;13.20;99.90
12833;DHT22;6483;51.310;4.462;2022-10-16T06:53:47;13.30;99.90
12833;DHT22;6483;51.310;4.462;2022-10-16T06:56:33;13.30;99.90
12833;DHT22;6483;51.310;4.462;2022-10-16T06:58:59;13.30;99.90
12833;DHT22;6483;51.310;4.462;2022-10-16T07:01:26;13.40;99.90
12833;DHT22;6483;51.310;4.462;2022-10-16T07:03:52;13.40;99.90
12833;DHT22;6483;51.310;4.462;2022-10-16T07:06:22;13.50;99.90
12833;DHT22;6483;51.310;4.462;2022-10-16T07:08:49;13.50;99.90
12833;DHT22;6483;51.310;4.462;2022-10-16T07:11:17;13.60;99.90
12833;DHT22;6483;51.310;4.462;2022-10-16T07:13:43;13.70;99.90
12833;DHT22;6483;51.310;4.462;2022-10-16T07:16:10;13.70;99.90
12833;DHT22;6483;51.310;4.462;2022-10-16T07:18:38;13.80;99.90
12833;DHT22;6483;51.310;4.462;2022-10-16T07:21:28;13.90;99.90
12833;DHT22;6483;51.310;4.462;2022-10-16T07:23:56;13.90;99.90
12833;DHT22;6483;51.310;4.462;2022-10-16T07:26:23;13.90;99.90
12833;DHT22;6483;51.310;4.462;2022-10-16T07:28:49;14.00;99.90
12833;DHT22;6483;51.310;4.462;2022-10-16T07:31:16;14.00;99.90
12833;DHT22;6483;51.310;4.462;2022-10-16T07:33:42;14.00;99.90
12833;DHT22;6483;51.310;4.462;2022-10-16T07:36:10;14.10;99.90
12833;DHT22;6483;51.310;4.462;2022-10-16T07:38:39;14.10;99.90
12833;DHT22;6483;51.310;4.462;2022-10-16T07:41:06;14.20;99.90
12833;DHT22;6483;51.310;4.462;2022-10-16T07:43:36;14.20;99.90
12833;DHT22;6483;51.310;4.462;2022-10-16T07:46:02;14.20;99.90
12833;DHT22;6483;51.310;4.462;2022-10-16T07:48:30;14.30;99.90
12833;DHT22;6483;51.310;4.462;2022-10-16T07:51:05;14.30;99.90
12833;DHT22;6483;51.310;4.462;2022-10-16T07:53:31;14.30;99.90
12833;DHT22;6483;51.310;4.462;2022-10-16T07:55:58;14.40;99.90
12833;DHT22;6483;51.310;4.462;2022-10-16T07:58:25;14.40;99.90
12833;DHT22;6483;51.310;4.462;2022-10-16T08:00:50;14.50;99.90
12833;DHT22;6483;51.310;4.462;2022-10-16T08:03:16;14.50;99.90
12833;DHT22;6483;51.310;4.462;2022-10-16T08:05:42;14.50;99.90
12833;DHT22;6483;51.310;4.462;2022-10-16T08:08:15;14.60;99.90
12833;DHT22;6483;51.310;4.462;2022-10-16T08:10:44;14.60;99.90
12833;DHT22;6483;51.310;4.462;2022-10-16T08:13:16;14.70;99.90
12833;DHT22;6483;51.310;4.462;2022-10-16T08:15:45;14.70;99.90
12833;DHT22;6483;51.310;4.462;2022-10-16T08:18:12;14.80;99.90
12833;DHT22;6483;51.310;4.462;2022-10-16T08:20:39;14.90;99.90
12833;DHT22;6483;51.310;4.462;2022-10-16T08:23:06;14.90;99.90
12833;DHT22;6483;51.310;4.462;2022-10-16T08:25:35;15.00;99.90
12833;DHT22;6483;51.310;4.462;2022-10-16T08:28:04;15.10;99.90
12833;DHT22;6483;51.310;4.462;2022-10-16T08:30:31;15.20;99.90
12833;DHT22;6483;51.310;4.462;2022-10-16T08:33:00;15.20;99.90
12833;DHT22;6483;51.310;4.462;2022-10-16T08:35:29;15.60;99.90
12833;DHT22;6483;51.310;4.462;2022-10-16T08:37:55;16.00;99.90
12833;DHT22;6483;51.310;4.462;2022-10-16T08:40:26;16.40;99.90
12833;DHT22;6483;51.310;4.462;2022-10-16T08:48:26;17.20;99.90
12833;DHT22;6483;51.310;4.462;2022-10-16T08:50:55;17.20;99.90
12833;DHT22;6483;51.310;4.462;2022-10-16T08:53:31;17.40;99.90
12833;DHT22;6483;51.310;4.462;2022-10-16T08:56:00;17.60;99.90
12833;DHT22;6483;51.310;4.462;2022-10-16T08:58:28;17.50;99.90
12833;DHT22;6483;51.310;4.462;2022-10-16T09:00:58;17.60;99.90
12833;DHT22;6483;51.310;4.462;2022-10-16T09:03:53;17.60;99.90
12833;DHT22;6483;51.310;4.462;2022-10-16T09:12:13;18.90;99.90
12833;DHT22;6483;51.310;4.462;2022-10-16T09:17:45;19.40;99.90
12833;DHT22;6483;51.310;4.462;2022-10-16T09:23:16;19.40;99.90
12833;DHT22;6483;51.310;4.462;2022-10-16T09:25:47;20.10;99.90
12833;DHT22;6483;51.310;4.462;2022-10-16T09:28:17;20.10;99.90
12833;DHT22;6483;51.310;4.462;2022-10-16T09:30:47;20.30;99.90
12833;DHT22;6483;51.310;4.462;2022-10-16T09:33:15;19.90;99.90
12833;DHT22;6483;51.310;4.462;2022-10-16T09:35:50;19.90;99.90
12833;DHT22;6483;51.310;4.462;2022-10-16T09:38:32;19.90;99.90
12833;DHT22;6483;51.310;4.462;2022-10-16T09:41:00;20.10;99.90
12833;DHT22;6483;51.310;4.462;2022-10-16T09:43:56;21.10;99.90
12833;DHT22;6483;51.310;4.462;2022-10-16T09:46:32;22.50;99.90
12833;DHT22;6483;51.310;4.462;2022-10-16T09:49:23;23.00;99.90
12833;DHT22;6483;51.310;4.462;2022-10-16T09:51:49;23.30;99.90
12833;DHT22;6483;51.310;4.462;2022-10-16T09:54:18;22.60;99.90
12833;DHT22;6483;51.310;4.462;2022-10-16T09:56:45;21.60;99.90
12833;DHT22;6483;51.310;4.462;2022-10-16T09:59:13;21.20;99.90
12833;DHT22;6483;51.310;4.462;2022-10-16T10:01:45;21.20;99.90
12833;DHT22;6483;51.310;4.462;2022-10-16T10:04:12;21.50;99.90
12833;DHT22;6483;51.310;4.462;2022-10-16T10:06:44;22.10;99.90
12833;DHT22;6483;51.310;4.462;2022-10-16T10:09:37;22.10;99.90
12833;DHT22;6483;51.310;4.462;2022-10-16T10:12:19;22.10;99.90
12833;DHT22;6483;51.310;4.462;2022-10-16T10:14:53;21.40;99.90
12833;DHT22;6483;51.310;4.462;2022-10-16T10:17:27;21.60;99.90
12833;DHT22;6483;51.310;4.462;2022-10-16T10:19:58;22.50;99.90
12833;DHT22;6483;51.310;4.462;2022-10-16T10:22:40;21.40;99.90
12833;DHT22;6483;51.310;4.462;2022-10-16T10:33:20;20.30;99.90
12833;DHT22;6483;51.310;4.462;2022-10-16T10:38:34;22.30;99.90
12833;DHT22;6483;51.310;4.462;2022-10-16T10:52:38;19.90;99.90
12833;DHT22;6483;51.310;4.462;2022-10-16T10:55:10;19.90;99.90
12833;DHT22;6483;51.310;4.462;2022-10-16T11:00:44;19.60;99.90
12833;DHT22;6483;51.310;4.462;2022-10-16T11:14:41;23.40;99.90
12833;DHT22;6483;51.310;4.462;2022-10-16T11:17:42;24.00;99.90
12833;DHT22;6483;51.310;4.462;2022-10-16T11:20:21;24.00;99.90
12833;DHT22;6483;51.310;4.462;2022-10-16T11:25:41;22.90;99.90
12833;DHT22;6483;51.310;4.462;2022-10-16T11:28:20;22.00;99.90
12833;DHT22;6483;51.310;4.462;2022-10-16T11:31:32;21.50;99.90
12833;DHT22;6483;51.310;4.462;2022-10-16T11:34:26;21.30;99.90
12833;DHT22;6483;51.310;4.462;2022-10-16T11:37:12;21.40;99.90
12833;DHT22;6483;51.310;4.462;2022-10-16T11:39:44;21.50;99.90
12833;DHT22;6483;51.310;4.462;2022-10-16T11:42:27;21.00;99.90
12833;DHT22;6483;51.310;4.462;2022-10-16T11:45:21;21.10;99.90
12833;DHT22;6483;51.310;4.462;2022-10-16T11:47:54;21.20;99.90
12833;DHT22;6483;51.310;4.462;2022-10-16T11:53:37;21.90;99.90
12833;DHT22;6483;51.310;4.462;2022-10-16T11:56:05;22.60;99.90
12833;DHT22;6483;51.310;4.462;2022-10-16T11:59:05;23.50;99.90
12833;DHT22;6483;51.310;4.462;2022-10-16T12:01:49;24.00;99.90
12833;DHT22;6483;51.310;4.462;2022-10-16T12:07:23;26.70;94.70
12833;DHT22;6483;51.310;4.462;2022-10-16T12:09:53;27.50;92.70
12833;DHT22;6483;51.310;4.462;2022-10-16T12:12:39;28.20;91.90
12833;DHT22;6483;51.310;4.462;2022-10-16T12:15:24;27.70;90.80
12833;DHT22;6483;51.310;4.462;2022-10-16T12:17:50;28.80;90.80
12833;DHT22;6483;51.310;4.462;2022-10-16T12:23:03;31.80;79.40
12833;DHT22;6483;51.310;4.462;2022-10-16T12:30:34;31.80;72.40
12833;DHT22;6483;51.310;4.462;2022-10-16T12:33:22;32.20;69.50
12833;DHT22;6483;51.310;4.462;2022-10-16T12:35:49;30.30;70.00
12833;DHT22;6483;51.310;4.462;2022-10-16T12:38:21;30.00;70.70
12833;DHT22;6483;51.310;4.462;2022-10-16T12:41:00;27.40;75.20
12833;DHT22;6483;51.310;4.462;2022-10-16T12:43:38;25.30;81.80
12833;DHT22;6483;51.310;4.462;2022-10-16T12:48:35;26.30;90.10
12833;DHT22;6483;51.310;4.462;2022-10-16T12:51:24;29.50;84.70
12833;DHT22;6483;51.310;4.462;2022-10-16T13:02:50;28.20;78.20
12833;DHT22;6483;51.310;4.462;2022-10-16T13:05:32;27.70;78.30
12833;DHT22;6483;51.310;4.462;2022-10-16T13:11:03;29.40;77.50
12833;DHT22;6483;51.310;4.462;2022-10-16T13:19:33;26.80;78.90
12833;DHT22;6483;51.310;4.462;2022-10-16T13:25:13;25.50;83.90
12833;DHT22;6483;51.310;4.462;2022-10-16T13:28:08;24.90;85.30
12833;DHT22;6483;51.310;4.462;2022-10-16T13:30:52;24.30;89.00
12833;DHT22;6483;51.310;4.462;2022-10-16T13:33:39;23.70;90.70
12833;DHT22;6483;51.310;4.462;2022-10-16T13:36:45;23.00;92.80
12833;DHT22;6483;51.310;4.462;2022-10-16T13:39:20;22.80;95.90
12833;DHT22;6483;51.310;4.462;2022-10-16T13:41:57;22.90;96.20
12833;DHT22;6483;51.310;4.462;2022-10-16T13:44:23;23.40;96.40
12833;DHT22;6483;51.310;4.462;2022-10-16T13:47:36;23.10;96.10
12833;DHT22;6483;51.310;4.462;2022-10-16T13:50:25;22.70;97.10
12833;DHT22;6483;51.310;4.462;2022-10-16T13:52:50;22.40;98.50
12833;DHT22;6483;51.310;4.462;2022-10-16T13:55:18;21.90;99.70
12833;DHT22;6483;51.310;4.462;2022-10-16T13:57:44;21.70;99.90
12833;DHT22;6483;51.310;4.462;2022-10-16T14:00:21;21.60;99.90
12833;DHT22;6483;51.310;4.462;2022-10-16T14:02:55;21.80;99.90
12833;DHT22;6483;51.310;4.462;2022-10-16T14:05:23;21.90;99.90
12833;DHT22;6483;51.310;4.462;2022-10-16T14:07:50;21.80;99.90
12833;DHT22;6483;51.310;4.462;2022-10-16T14:10:28;21.30;99.90
12833;DHT22;6483;51.310;4.462;2022-10-16T14:13:03;21.30;99.90
12833;DHT22;6483;51.310;4.462;2022-10-16T14:15:50;21.40;99.90
12833;DHT22;6483;51.310;4.462;2022-10-16T14:18:22;21.40;99.90
12833;DHT22;6483;51.310;4.462;2022-10-16T14:20:52;21.40;99.90
12833;DHT22;6483;51.310;4.462;2022-10-16T14:23:28;21.40;99.90
12833;DHT22;6483;51.310;4.462;2022-10-16T14:26:04;21.50;99.90
12833;DHT22;6483;51.310;4.462;2022-10-16T14:28:30;21.60;99.90
12833;DHT22;6483;51.310;4.462;2022-10-16T14:31:00;21.50;99.90
12833;DHT22;6483;51.310;4.462;2022-10-16T14:33:45;21.20;99.90
12833;DHT22;6483;51.310;4.462;2022-10-16T14:36:13;21.10;99.90
12833;DHT22;6483;51.310;4.462;2022-10-16T14:38:42;20.80;99.90
12833;DHT22;6483;51.310;4.462;2022-10-16T14:41:08;20.70;99.90
12833;DHT22;6483;51.310;4.462;2022-10-16T14:43:40;20.80;99.90
12833;DHT22;6483;51.310;4.462;2022-10-16T14:46:15;20.80;99.90
12833;DHT22;6483;51.310;4.462;2022-10-16T14:48:50;20.80;99.90
12833;DHT22;6483;51.310;4.462;2022-10-16T14:51:39;20.70;99.90
12833;DHT22;6483;51.310;4.462;2022-10-16T14:54:16;20.30;99.90
12833;DHT22;6483;51.310;4.462;2022-10-16T14:56:51;20.20;99.90
12833;DHT22;6483;51.310;4.462;2022-10-16T14:59:29;20.00;99.90
12833;DHT22;6483;51.310;4.462;2022-10-16T15:01:56;19.80;99.90
12833;DHT22;6483;51.310;4.462;2022-10-16T15:04:22;19.80;99.90
12833;DHT22;6483;51.310;4.462;2022-10-16T15:06:48;19.60;99.90
12833;DHT22;6483;51.310;4.462;2022-10-16T15:09:13;19.50;99.90
12833;DHT22;6483;51.310;4.462;2022-10-16T15:11:40;19.40;99.90
12833;DHT22;6483;51.310;4.462;2022-10-16T15:14:18;19.20;99.90
12833;DHT22;6483;51.310;4.462;2022-10-16T15:16:55;19.10;99.90
12833;DHT22;6483;51.310;4.462;2022-10-16T15:19:23;19.00;99.90
12833;DHT22;6483;51.310;4.462;2022-10-16T15:21:49;18.80;99.90
12833;DHT22;6483;51.310;4.462;2022-10-16T15:24:15;18.80;99.90
12833;DHT22;6483;51.310;4.462;2022-10-16T15:26:41;18.70;99.90
12833;DHT22;6483;51.310;4.462;2022-10-16T15:29:07;18.60;99.90
12833;DHT22;6483;51.310;4.462;2022-10-16T15:31:36;18.50;99.90
12833;DHT22;6483;51.310;4.462;2022-10-16T15:34:03;18.40;99.90
12833;DHT22;6483;51.310;4.462;2022-10-16T15:36:33;18.40;99.90
12833;DHT22;6483;51.310;4.462;2022-10-16T15:39:00;18.30;99.90
12833;DHT22;6483;51.310;4.462;2022-10-16T15:41:28;18.30;99.90
12833;DHT22;6483;51.310;4.462;2022-10-16T15:43:54;18.30;99.90
12833;DHT22;6483;51.310;4.462;2022-10-16T15:46:21;18.20;99.90
12833;DHT22;6483;51.310;4.462;2022-10-16T15:48:51;18.20;99.90
12833;DHT22;6483;51.310;4.462;2022-10-16T15:51:20;18.20;99.90
12833;DHT22;6483;51.310;4.462;2022-10-16T15:53:46;18.10;99.90
12833;DHT22;6483;51.310;4.462;2022-10-16T15:56:13;18.10;99.90
12833;DHT22;6483;51.310;4.462;2022-10-16T15:58:39;18.00;99.90
12833;DHT22;6483;51.310;4.462;2022-10-16T16:01:05;17.90;99.90
12833;DHT22;6483;51.310;4.462;2022-10-16T16:03:32;17.80;99.90
12833;DHT22;6483;51.310;4.462;2022-10-16T16:06:05;17.80;99.90
12833;DHT22;6483;51.310;4.462;2022-10-16T16:08:33;17.60;99.90
12833;DHT22;6483;51.310;4.462;2022-10-16T16:11:21;17.60;99.90
12833;DHT22;6483;51.310;4.462;2022-10-16T16:13:45;17.50;99.90
12833;DHT22;6483;51.310;4.462;2022-10-16T16:16:16;17.40;99.90
12833;DHT22;6483;51.310;4.462;2022-10-16T16:18:43;17.30;99.90
12833;DHT22;6483;51.310;4.462;2022-10-16T16:21:11;17.20;99.90
12833;DHT22;6483;51.310;4.462;2022-10-16T16:23:37;17.10;99.90
12833;DHT22;6483;51.310;4.462;2022-10-16T16:26:22;17.00;99.90
12833;DHT22;6483;51.310;4.462;2022-10-16T16:28:58;16.90;99.90
12833;DHT22;6483;51.310;4.462;2022-10-16T16:31:25;16.80;99.90
12833;DHT22;6483;51.310;4.462;2022-10-16T16:33:51;16.60;99.90
12833;DHT22;6483;51.310;4.462;2022-10-16T16:36:18;16.70;99.90
12833;DHT22;6483;51.310;4.462;2022-10-16T16:38:44;16.70;99.90
12833;DHT22;6483;51.310;4.462;2022-10-16T16:41:15;16.60;99.90
12833;DHT22;6483;51.310;4.462;2022-10-16T16:43:41;16.50;99.90
12833;DHT22;6483;51.310;4.462;2022-10-16T16:46:07;16.40;99.90
12833;DHT22;6483;51.310;4.462;2022-10-16T16:48:34;16.30;99.90
12833;DHT22;6483;51.310;4.462;2022-10-16T16:51:29;16.30;99.90
12833;DHT22;6483;51.310;4.462;2022-10-16T16:53:56;16.20;99.90
12833;DHT22;6483;51.310;4.462;2022-10-16T16:56:22;16.10;99.90
12833;DHT22;6483;51.310;4.462;2022-10-16T16:58:50;16.10;99.90
12833;DHT22;6483;51.310;4.462;2022-10-16T17:01:16;16.10;99.90
12833;DHT22;6483;51.310;4.462;2022-10-16T17:03:43;16.10;99.90
12833;DHT22;6483;51.310;4.462;2022-10-16T17:06:12;16.00;99.90
12833;DHT22;6483;51.310;4.462;2022-10-16T17:08:42;16.00;99.90
12833;DHT22;6483;51.310;4.462;2022-10-16T17:11:12;16.00;99.90
12833;DHT22;6483;51.310;4.462;2022-10-16T17:13:38;16.00;99.90
12833;DHT22;6483;51.310;4.462;2022-10-16T17:16:05;16.00;99.90
12833;DHT22;6483;51.310;4.462;2022-10-16T17:18:32;16.00;99.90
12833;DHT22;6483;51.310;4.462;2022-10-16T17:21:05;16.00;99.90
12833;DHT22;6483;51.310;4.462;2022-10-16T17:23:32;15.90;99.90
12833;DHT22;6483;51.310;4.462;2022-10-16T17:26:04;15.90;99.90
12833;DHT22;6483;51.310;4.462;2022-10-16T17:28:30;15.90;99.90
12833;DHT22;6483;51.310;4.462;2022-10-16T17:30:56;15.90;99.90
12833;DHT22;6483;51.310;4.462;2022-10-16T17:33:21;15.80;99.90
12833;DHT22;6483;51.310;4.462;2022-10-16T17:35:47;15.80;99.90
12833;DHT22;6483;51.310;4.462;2022-10-16T17:38:13;15.90;99.90
12833;DHT22;6483;51.310;4.462;2022-10-16T17:40:41;16.10;99.90
12833;DHT22;6483;51.310;4.462;2022-10-16T17:43:08;16.00;99.90
12833;DHT22;6483;51.310;4.462;2022-10-16T17:45:36;16.00;99.90
12833;DHT22;6483;51.310;4.462;2022-10-16T17:48:02;15.90;99.90
12833;DHT22;6483;51.310;4.462;2022-10-16T17:50:28;15.90;99.90
12833;DHT22;6483;51.310;4.462;2022-10-16T17:52:53;15.90;99.90
12833;DHT22;6483;51.310;4.462;2022-10-16T17:55:19;15.90;99.90
12833;DHT22;6483;51.310;4.462;2022-10-16T17:57:45;15.90;99.90
12833;DHT22;6483;51.310;4.462;2022-10-16T18:00:11;15.90;99.90
12833;DHT22;6483;51.310;4.462;2022-10-16T18:02:36;15.90;99.90